• Join FlightAware (Why Join?)
  • Login
  • US Flag 
Rudolph Flight #1: Arrived! 
01:25PM EST


 

Airport Tracker/Info


-or-


 

Live Flight TrackerFlight Track Log ✈ N59CW ✈ 06-Apr-2014 ✈ KPIE - KAPF

Flight Track Log - Related Links

Times and Time Zones

All times are in EDT time to prevent confusion due to time zone crossing. See the N59CW flight status page for this flight to view local times or setup timezone preferences in your user account.

Time Position Orientation Groundspeed Altitude Reporting Facility
EDT Latitude Longitude Course Direction KTS MPH feet Rate Location/Type
10:35AM 27.9000 -82.6833 117° Southeast 90 104 500  Level Tampa TRACON
10:36AM 27.8833 -82.7000 221° Southwest 87 100 1,200 780 Climbing Tampa TRACON
10:37AM 27.8667 -82.7167 221° Southwest 81 93 1,900 600 Climbing Tampa TRACON
10:38AM 27.8500 -82.7167 180° South 72 83 2,600 600 Climbing Tampa TRACON
10:39AM 27.8333 -82.7333 221° Southwest 73 84 3,200 600 Climbing Tampa TRACON
10:40AM 27.8000 -82.7333 180° South 82 94 3,900 600 Climbing Tampa TRACON
10:41AM 27.7908 -82.4287 117° Southeast  Level Estimated
10:41AM 27.7833 -82.7333 180° South 84 97 4,500  Level Tampa TRACON
10:42AM 27.7667 -82.7333 180° South 89 102 5,000 600 Climbing Tampa TRACON
10:43AM 27.7333 -82.7333 180° South 90 104 5,800 660 Climbing Tampa TRACON
10:44AM 27.7167 -82.7333 180° South 92 106 6,400 600 Climbing Tampa TRACON
10:45AM 27.6833 -82.7333 180° South 95 109 7,000 360 Climbing Tampa TRACON
10:46AM 27.6500 -82.7333 180° South 110 127 7,100  Climbing Tampa TRACON
10:47AM 27.6333 -82.7167 138° Southeast 129 148 7,100  Level Tampa TRACON
10:48AM 27.6000 -82.7000 156° South 122 140 7,100  Level Tampa TRACON
10:49AM 27.5667 -82.6833 156° South 119 137 7,100  Level Tampa TRACON
10:50AM 27.5333 -82.6667 156° South 118 136 7,100  Level Tampa TRACON
10:51AM 27.5000 -82.6500 156° South 121 139 7,100  Level Tampa TRACON
10:52AM 27.4667 -82.6500 180° South 126 145 7,100  Level Tampa TRACON
10:53AM 27.4333 -82.6333 156° South 121 139 7,200  Climbing Tampa TRACON
10:54AM 27.4000 -82.6167 156° South 121 139 7,100 -60 Descending Tampa TRACON
10:55AM 27.3667 -82.6000 156° South 121 139 7,100  Level Tampa TRACON
10:56AM 27.3333 -82.6000 180° South 124 143 7,100  Level Tampa TRACON
10:57AM 27.3000 -82.5833 156° South 125 144 7,100  Level Tampa TRACON
10:58AM 27.2667 -82.5667 156° South 125 144 7,100  Level Tampa TRACON
10:59AM 27.2333 -82.5500 156° South 127 146 7,100  Level Tampa TRACON
11:00AM 27.2000 -82.5500 180° South 124 143 7,100  Level Tampa TRACON
11:01AM 27.1833 -82.5333 138° Southeast 123 142 7,100  Level Tampa TRACON
11:02AM 27.1500 -82.5000 138° Southeast 125 144 7,100 -120 Level Tampa TRACON
11:27AM 26.8631 -81.6183 73° East 131 151 5,100 -120 Descending Miami Center
11:28AM 26.5296 -81.7182 73° East  Level FlightAware Approximate
11:28AM 26.8581 -81.5783 98° East 131 151 5,100  Level Miami Center
11:29AM 26.5400 -81.6790 73° East  Level FlightAware Approximate
11:29AM 26.8511 -81.5408 102° East 130 150 5,100  Level Miami Center
11:30AM 26.5505 -81.6399 73° East  Level FlightAware Approximate
11:30AM 26.8481 -81.4989 95° East 137 158 5,100  Level Miami Center
11:31AM 26.5609 -81.6006 73° East  Level FlightAware Approximate
11:31AM 26.8389 -81.4636 106° East 132 152 5,100  Level Miami Center
11:32AM 26.5713 -81.5614 73° East  Level FlightAware Approximate
11:32AM 26.8317 -81.4261 102° East 125 144 5,100  Level Miami Center
11:33AM 26.8289 -81.3842 94° East 125 144 5,100  Level Miami Center
11:34AM 26.8303 -81.3422 88° East 125 144 5,100  Level Miami Center
11:35AM 26.8294 -81.3003 91° East 125 144 5,100  Level Miami Center
11:36AM 26.8283 -81.2608 92° East 125 144 5,100  Level Miami Center
11:37AM 26.8256 -81.2211 94° East 125 144 5,100  Level Miami Center
11:38AM 26.8203 -81.1836 99° East 125 144 5,100  Level Miami Center
11:39AM 26.8153 -81.1417 98° East 125 144 5,100  Level Miami Center
11:40AM 26.8122 -81.1019 95° East 125 144 5,100  Level Miami Center
11:41AM 26.8092 -81.0622 95° East 125 144 5,100  Level Miami Center
11:42AM 26.8106 -81.0228 88° East 130 150 5,100  Level Miami Center
11:43AM 26.8053 -80.9831 98° East 125 144 5,100  Level Miami Center
11:44AM 26.8022 -80.9458 95° East 125 144 5,100  Level Miami Center
11:45AM 26.8011 -80.9061 92° East 125 144 5,100  Level Miami Center
11:46AM 26.7983 -80.8617 94° East 125 144 5,100  Level Miami Center
11:47AM 26.7972 -80.8222 92° East 119 137 5,100  Level Miami Center
11:48AM 26.7942 -80.7847 95° East 124 143 5,100  Level Miami Center
11:49AM 26.7908 -80.7500 96° East 124 143 5,100 -240 Level Miami Center
11:50AM 26.7856 -80.7125 99° East 124 143 4,700 -480 Descending Miami Center
11:51AM 26.7825 -80.6706 95° East 124 143 4,200 -540 Descending Miami Center
11:52AM 26.7814 -80.6356 92° East 124 143 3,700 -120 Descending Miami Center
12:12PM 26.5969 -80.0558 251° West 90 104 2,500 -60 Descending Miami Center
12:13PM 26.6463 -80.1649 254° West  Level FlightAware Approximate
12:13PM 26.5900 -80.0789 251° West 104 120 3,000  Level Miami Center
12:14PM 26.6386 -80.1956 254° West  Level FlightAware Approximate
12:14PM 26.5828 -80.1183 258° West 109 125 3,600  Level Miami Center
12:15PM 26.6305 -80.2261 251° West  Level FlightAware Approximate
12:15PM 26.5781 -80.1458 259° West 109 125 4,100  Level Miami Center
12:16PM 26.6212 -80.2562 251° West  Level FlightAware Approximate
12:16PM 26.5708 -80.1853 258° West 134 154 4,100  Level Miami Center
12:17PM 26.6120 -80.2863 251° West  Level FlightAware Approximate
12:17PM 26.5761 -80.2319 277° West 141 162 4,100  Level Miami Center
12:18PM 26.5772 -80.2692 272° West 136 157 4,100  Level Miami Center
12:19PM 26.5803 -80.3178 274° West 136 157 4,100  Level Miami Center
12:20PM 26.5836 -80.3553 276° West 136 157 4,200  Climbing Miami Center
12:21PM 26.5867 -80.4064 274° West 136 157 4,100 -60 Descending Miami Center
12:22PM 26.5900 -80.4414 276° West 136 157 4,100  Level Miami Center
12:23PM 26.5950 -80.4856 277° West 136 157 4,100  Level Miami Center
12:24PM 26.5964 -80.5206 273° West 132 152 4,100  Level Miami Center
12:25PM 26.6014 -80.5669 277° West 132 152 4,200  Climbing Miami Center
12:26PM 26.6006 -80.6042 269° West 132 152 4,100 -60 Descending Miami Center
12:27PM 26.6056 -80.6486 277° West 132 152 4,100  Level Miami Center
12:28PM 26.6108 -80.6836 280° West 132 152 4,100  Level Miami Center
12:29PM 26.6119 -80.7278 272° West 132 152 4,100  Level Miami Center
12:30PM 26.6089 -80.7600 264° West 132 152 4,100  Level Miami Center
12:31PM 26.5831 -80.7872 223° Southwest 119 137 4,100  Level Miami Center
12:32PM 26.5553 -80.8117 218° Southwest 119 137 4,200  Climbing Miami Center
12:33PM 26.5297 -80.8342 218° Southwest 119 137 4,100  Descending Miami Center
12:34PM 26.5058 -80.8611 225° Southwest 124 143 4,200  Climbing Miami Center
12:35PM 26.4781 -80.8858 219° Southwest 124 143 4,100 -60 Descending Miami Center
12:36PM 26.4608 -80.9061 227° Southwest 115 132 4,100  Level Miami Center
12:37PM 26.4308 -80.9350 221° Southwest 120 138 4,100  Level Miami Center
12:38PM 26.4114 -80.9600 229° Southwest 120 138 4,100  Level Miami Center
12:39PM 26.3856 -80.9869 223° Southwest 120 138 4,100  Level Miami Center
12:40PM 26.3639 -81.0069 220° Southwest 120 138 4,100  Level Miami Center
12:41PM 26.3381 -81.0386 228° Southwest 120 138 4,100  Level Miami Center
12:42PM 26.3183 -81.0681 233° Southwest 130 150 4,200  Climbing Miami Center
12:43PM 26.3008 -81.0975 236° Southwest 130 150 4,200  Level Miami Center
12:44PM 26.2997 -81.1392 268° West 130 150 4,200  Level Miami Center
12:45PM 26.2903 -81.1758 254° West 130 150 4,200 -60 Level Miami Center
12:46PM 26.2828 -81.2128 257° West 130 150 4,100 -60 Descending Miami Center
12:47PM 26.2753 -81.2517 258° West 130 150 4,100  Level Miami Center
12:48PM 26.2639 -81.2883 251° West 130 150 4,100  Level Miami Center
12:49PM 26.2503 -81.3250 248° West 130 150 4,200  Climbing Miami Center
12:50PM 26.2469 -81.3619 264° West 130 150 4,100 -60 Descending Miami Center
12:51PM 26.2394 -81.4008 258° West 130 150 4,100 -240 Level Miami Center
12:52PM 26.2383 -81.4403 268° West 125 144 3,700 -540 Descending Miami Center
12:53PM 26.2433 -81.4775 279° West 125 144 3,100 -300 Descending Miami Center
12:54PM 26.2483 -81.5169 278° West 130 150 3,200 60 Climbing Miami Center
12:56PM 26.2240 -81.5467 228° Southwest  Level FlightAware Approximate
01:03PM 26.1500 -81.7667 257° West  Level FlightAware Approximate
01:04PM 26.1524 -81.7756 90° East  Level Estimated
01:05PM 26.1524 -81.7756 107° East  Level Estimated
01:06PM 26.1524 -81.7756 257° West  Level Estimated
01:07PM 26.1524 -81.7756 107° East  Level Estimated
01:08PM 26.1524 -81.7756 107° East  Level Estimated
01:09PM 26.1524 -81.7756 257° West  Level Estimated
01:10PM 26.1524 -81.7756 107° East  Level Estimated
01:11PM 26.1524 -81.7756 107° East  Level Estimated
01:12PM 26.1524 -81.7756 257° West  Level Estimated
01:13PM 26.1524 -81.7756 107° East  Level Estimated